Flight OLY10034

  • Submitted By: Stavros Sarikas
  • Departure Airport: GLASGOW (EGPF)
  • Arrival Airport: Manchester Airport (EGCC)
  • Aircraft: A320-200 (SX-OAH)
  • Flight Time: 00.47
  • Date Submitted: 31/08/2017
  • Route: LUSIV L612 NAVSO UL612 BEBNI L612 DCS UL612 LAKEY
  • Status: Accepted
Flight Details
Gross Revenue:
(138 load / € 42.25 per unit
€ 5, 830.50
Fuel Cost:
(17846 fuel used @ 0.19 / unit)
€ 3, 390.74

Additional Log Information:

View Log

Aircraft Used in flight is Airbus A320 British Airways G-EUUU
22:16 Boarding
22:16 Beacon Lights ON at 40 Feet
22:16 Brakes are On
22:17 Navigation Lights ON at 40 Feet
22:22 Engine 2 Started
22:23 Engine 1 Started
22:24 Brakes are Released
22:24 Pushing back
22:24 Flaps 3 Selected at 40ft and 36kts
22:25 Taxi Lights ON at 40 Feet
22:26 Landing Lights ON at 40 AGL
22:26 Strobe Lights ON at 40 Feet
22:26 You Took off @ 139 Knots and Flaps at Position 3 With a heading of 227 Degrees
Departure Weather EGPF 311850Z AUTO 26004KT 9999 NCD 15/10 Q1018
Departure Coordinates 55.8687767583197/ -4.43933503056844
Takeoff Weight=57705KG Fuel Weight=2860KG
22:26 TOC Reached
22:26 Paused
22:26 Landing Gear Up @ 149 Knots and 110 Feet
22:26 Taxi Lights OFF at 120 Feet
22:27 Unpaused
22:27 Flaps 2 Selected at 1600ft and 145kts
22:28 Flaps 0 Selected at 1850ft and 182kts
22:28 You exceeded maximum bank angle
22:29 Below 10000 feet you are not allowed to go over 250 knots
22:30 Above FL100 you need to switch of the landing lights
22:30 Landing Lights OFF at 10560 AGL
22:51 Landing Lights ON at 9750 AGL
22:57 Flaps 1 Selected at 2960ft and 193kts
22:59 Flaps 3 Selected at 2180ft and 180kts
22:59 Landing Gear Down @ 180 Knots and 2110 Feet
22:59 Flaps 4 Selected at 2010ft and 168kts
22:59 Taxi Lights ON at 2000 Feet
22:59 Flaps 5 Selected at 1990ft and 158kts
23:03 You Landed @ 125 Knots with -404 Vertical Speed With a heading of 230 and with 2.0544 G Force
Arrival Weather: EGCC 311950Z AUTO 28003KT 9999 NCD 15/09 Q1019 NOSIG
Arrival Coordinates 53.3464181314443/ -2.28060865865165
Landing Weight=56082KG Fuel Weight=1238KG
23:03 Taxiing to gate
23:03 Landing Lights OFF at 270 AGL
23:03 Paused
23:03 Strobe Lights OFF at 270 Feet
23:03 Flaps 0 Selected at 270ft and 9kts
Pirep logged with OA Virtual Tracking 1.0.2.4

Route Map